sensor_id;sensor_type;location;lat;lon;timestamp;pressure;altitude;pressure_sealevel;temperature;humidity
82311;BME280;72015;51.330;12.316;2024-01-15T00:02:30;98590.55;;;-4.30;65.52
82311;BME280;72015;51.330;12.316;2024-01-15T00:06:54;98586.81;;;-4.30;65.01
82311;BME280;72015;51.330;12.316;2024-01-15T00:11:18;98579.60;;;-4.27;65.24
82311;BME280;72015;51.330;12.316;2024-01-15T00:15:42;98572.99;;;-4.28;65.30
82311;BME280;72015;51.330;12.316;2024-01-15T00:20:07;98570.17;;;-4.36;66.36
82311;BME280;72015;51.330;12.316;2024-01-15T00:24:30;98562.41;;;-4.39;65.04
82311;BME280;72015;51.330;12.316;2024-01-15T00:28:54;98555.03;;;-4.36;64.95
82311;BME280;72015;51.330;12.316;2024-01-15T00:33:18;98552.14;;;-4.41;65.76
82311;BME280;72015;51.330;12.316;2024-01-15T00:37:42;98547.38;;;-4.48;66.09
82311;BME280;72015;51.330;12.316;2024-01-15T00:42:06;98543.91;;;-4.53;65.99
82311;BME280;72015;51.330;12.316;2024-01-15T00:46:30;98540.97;;;-4.56;65.82
82311;BME280;72015;51.330;12.316;2024-01-15T00:50:54;98534.98;;;-4.52;64.77
82311;BME280;72015;51.330;12.316;2024-01-15T00:55:18;98531.23;;;-4.52;65.51
82311;BME280;72015;51.330;12.316;2024-01-15T00:59:42;98526.15;;;-4.57;65.70
82311;BME280;72015;51.330;12.316;2024-01-15T01:04:06;98521.84;;;-4.58;65.19
82311;BME280;72015;51.330;12.316;2024-01-15T01:08:30;98517.02;;;-4.50;64.65
82311;BME280;72015;51.330;12.316;2024-01-15T01:12:54;98511.27;;;-4.47;64.66
82311;BME280;72015;51.330;12.316;2024-01-15T01:17:18;98507.65;;;-4.29;62.56
82311;BME280;72015;51.330;12.316;2024-01-15T01:21:42;98504.36;;;-4.13;62.26
82311;BME280;72015;51.330;12.316;2024-01-15T01:26:06;98504.08;;;-4.07;62.78
82311;BME280;72015;51.330;12.316;2024-01-15T01:30:30;98498.25;;;-4.02;62.67
82311;BME280;72015;51.330;12.316;2024-01-15T01:34:54;98495.57;;;-3.99;62.64
82311;BME280;72015;51.330;12.316;2024-01-15T01:39:18;98494.75;;;-4.02;63.68
82311;BME280;72015;51.330;12.316;2024-01-15T01:43:43;98491.75;;;-4.14;64.52
82311;BME280;72015;51.330;12.316;2024-01-15T01:48:06;98492.02;;;-4.23;64.35
82311;BME280;72015;51.330;12.316;2024-01-15T01:52:30;98487.67;;;-4.36;64.61
82311;BME280;72015;51.330;12.316;2024-01-15T01:56:54;98484.17;;;-4.48;65.69
82311;BME280;72015;51.330;12.316;2024-01-15T02:01:18;98478.72;;;-4.60;64.99
82311;BME280;72015;51.330;12.316;2024-01-15T02:05:43;98477.94;;;-4.66;64.75
82311;BME280;72015;51.330;12.316;2024-01-15T02:10:06;98476.64;;;-4.83;66.67
82311;BME280;72015;51.330;12.316;2024-01-15T02:14:30;98476.64;;;-4.93;65.91
82311;BME280;72015;51.330;12.316;2024-01-15T02:18:54;98470.94;;;-5.02;66.12
82311;BME280;72015;51.330;12.316;2024-01-15T02:23:18;98469.87;;;-5.12;66.69
82311;BME280;72015;51.330;12.316;2024-01-15T02:27:42;98464.89;;;-5.16;66.06
82311;BME280;72015;51.330;12.316;2024-01-15T02:32:07;98465.53;;;-5.17;65.98
82311;BME280;72015;51.330;12.316;2024-01-15T02:36:30;98459.97;;;-5.12;65.05
82311;BME280;72015;51.330;12.316;2024-01-15T02:40:54;98457.30;;;-5.11;65.03
82311;BME280;72015;51.330;12.316;2024-01-15T02:45:19;98456.43;;;-5.08;64.87
82311;BME280;72015;51.330;12.316;2024-01-15T02:49:42;98454.28;;;-5.03;64.50
82311;BME280;72015;51.330;12.316;2024-01-15T02:54:06;98458.04;;;-4.99;64.87
82311;BME280;72015;51.330;12.316;2024-01-15T02:58:30;98457.09;;;-4.98;65.28
82311;BME280;72015;51.330;12.316;2024-01-15T03:02:54;98453.38;;;-5.04;66.15
82311;BME280;72015;51.330;12.316;2024-01-15T03:07:18;98448.94;;;-5.10;66.48
82311;BME280;72015;51.330;12.316;2024-01-15T03:11:42;98450.78;;;-5.12;66.08
82311;BME280;72015;51.330;12.316;2024-01-15T03:16:06;98450.93;;;-5.14;65.75
82311;BME280;72015;51.330;12.316;2024-01-15T03:20:30;98452.91;;;-5.10;65.26
82311;BME280;72015;51.330;12.316;2024-01-15T03:24:54;98452.40;;;-5.12;66.20
82311;BME280;72015;51.330;12.316;2024-01-15T03:29:18;98452.48;;;-5.13;65.28
82311;BME280;72015;51.330;12.316;2024-01-15T03:33:42;98455.92;;;-5.10;64.88
82311;BME280;72015;51.330;12.316;2024-01-15T03:38:06;98452.81;;;-5.12;66.47
82311;BME280;72015;51.330;12.316;2024-01-15T03:42:30;98451.88;;;-5.17;65.96
82311;BME280;72015;51.330;12.316;2024-01-15T03:46:54;98451.40;;;-5.15;65.85
82311;BME280;72015;51.330;12.316;2024-01-15T03:51:18;98451.44;;;-5.20;66.23
82311;BME280;72015;51.330;12.316;2024-01-15T03:55:42;98452.40;;;-5.22;66.15
82311;BME280;72015;51.330;12.316;2024-01-15T04:00:07;98452.87;;;-5.23;66.23
82311;BME280;72015;51.330;12.316;2024-01-15T04:04:30;98455.43;;;-5.19;65.12
82311;BME280;72015;51.330;12.316;2024-01-15T04:08:54;98461.81;;;-5.23;66.03
82311;BME280;72015;51.330;12.316;2024-01-15T04:13:18;98466.05;;;-5.22;65.82
82311;BME280;72015;51.330;12.316;2024-01-15T04:17:42;98468.84;;;-5.18;65.55
82311;BME280;72015;51.330;12.316;2024-01-15T04:22:06;98476.11;;;-5.14;65.08
82311;BME280;72015;51.330;12.316;2024-01-15T04:26:30;98472.81;;;-5.11;65.03
82311;BME280;72015;51.330;12.316;2024-01-15T04:30:54;98470.90;;;-5.06;64.60
82311;BME280;72015;51.330;12.316;2024-01-15T04:35:18;98466.71;;;-4.95;63.07
82311;BME280;72015;51.330;12.316;2024-01-15T04:39:42;98465.86;;;-4.99;65.12
82311;BME280;72015;51.330;12.316;2024-01-15T04:44:06;98463.33;;;-4.99;64.47
82311;BME280;72015;51.330;12.316;2024-01-15T04:48:30;98464.69;;;-5.02;64.94
82311;BME280;72015;51.330;12.316;2024-01-15T04:52:54;98463.17;;;-4.99;63.71
82311;BME280;72015;51.330;12.316;2024-01-15T04:57:18;98460.78;;;-4.93;63.07
82311;BME280;72015;51.330;12.316;2024-01-15T05:01:42;98461.57;;;-4.96;64.01
82311;BME280;72015;51.330;12.316;2024-01-15T05:06:06;98458.14;;;-4.98;63.46
82311;BME280;72015;51.330;12.316;2024-01-15T05:10:30;98456.72;;;-5.02;63.80
82311;BME280;72015;51.330;12.316;2024-01-15T05:14:54;98455.89;;;-5.04;63.20
82311;BME280;72015;51.330;12.316;2024-01-15T05:19:18;98455.33;;;-5.03;62.93
82311;BME280;72015;51.330;12.316;2024-01-15T05:23:42;98452.58;;;-5.02;63.53
82311;BME280;72015;51.330;12.316;2024-01-15T05:28:06;98452.81;;;-5.03;63.16
82311;BME280;72015;51.330;12.316;2024-01-15T05:32:31;98449.20;;;-5.07;63.33
82311;BME280;72015;51.330;12.316;2024-01-15T05:36:54;98443.37;;;-5.15;64.14
82311;BME280;72015;51.330;12.316;2024-01-15T05:41:18;98438.82;;;-5.14;63.32
82311;BME280;72015;51.330;12.316;2024-01-15T05:45:42;98438.11;;;-5.11;63.06
82311;BME280;72015;51.330;12.316;2024-01-15T05:50:08;98437.53;;;-5.13;63.24
82311;BME280;72015;51.330;12.316;2024-01-15T05:54:30;98432.69;;;-5.10;62.49
82311;BME280;72015;51.330;12.316;2024-01-15T05:58:54;98428.08;;;-5.06;62.70
82311;BME280;72015;51.330;12.316;2024-01-15T06:03:18;98426.54;;;-5.05;62.87
82311;BME280;72015;51.330;12.316;2024-01-15T06:07:42;98421.28;;;-5.04;63.11
82311;BME280;72015;51.330;12.316;2024-01-15T06:12:07;98417.35;;;-5.07;63.16
82311;BME280;72015;51.330;12.316;2024-01-15T06:16:30;98418.17;;;-5.15;63.96
82311;BME280;72015;51.330;12.316;2024-01-15T06:20:54;98421.19;;;-5.14;63.27
82311;BME280;72015;51.330;12.316;2024-01-15T06:25:18;98422.66;;;-5.14;63.24
82311;BME280;72015;51.330;12.316;2024-01-15T06:29:44;98426.11;;;-5.09;62.66
82311;BME280;72015;51.330;12.316;2024-01-15T06:34:06;98430.98;;;-5.10;63.03
82311;BME280;72015;51.330;12.316;2024-01-15T06:38:30;98433.97;;;-5.11;63.45
82311;BME280;72015;51.330;12.316;2024-01-15T06:42:54;98434.36;;;-5.05;62.08
82311;BME280;72015;51.330;12.316;2024-01-15T06:47:18;98434.72;;;-5.01;62.43
82311;BME280;72015;51.330;12.316;2024-01-15T06:51:42;98439.28;;;-4.98;62.14
82311;BME280;72015;51.330;12.316;2024-01-15T06:56:06;98438.95;;;-4.99;62.33
82311;BME280;72015;51.330;12.316;2024-01-15T07:00:30;98441.88;;;-5.00;62.59
82311;BME280;72015;51.330;12.316;2024-01-15T07:04:54;98443.22;;;-5.04;63.20
82311;BME280;72015;51.330;12.316;2024-01-15T07:09:18;98442.65;;;-5.13;63.89
82311;BME280;72015;51.330;12.316;2024-01-15T07:13:42;98442.14;;;-5.16;62.66
82311;BME280;72015;51.330;12.316;2024-01-15T07:18:06;98442.13;;;-5.18;62.86
82311;BME280;72015;51.330;12.316;2024-01-15T07:22:31;98441.30;;;-5.19;63.39
82311;BME280;72015;51.330;12.316;2024-01-15T07:26:55;98441.02;;;-5.14;62.25
82311;BME280;72015;51.330;12.316;2024-01-15T07:31:19;98441.99;;;-5.14;62.32
82311;BME280;72015;51.330;12.316;2024-01-15T07:35:43;98447.11;;;-5.15;62.72
82311;BME280;72015;51.330;12.316;2024-01-15T07:40:07;98446.84;;;-5.08;62.07
82311;BME280;72015;51.330;12.316;2024-01-15T07:44:31;98448.61;;;-5.01;61.77
82311;BME280;72015;51.330;12.316;2024-01-15T07:48:55;98448.90;;;-4.95;61.57
82311;BME280;72015;51.330;12.316;2024-01-15T07:53:19;98447.96;;;-4.91;61.22
82311;BME280;72015;51.330;12.316;2024-01-15T07:57:43;98447.66;;;-4.88;61.54
82311;BME280;72015;51.330;12.316;2024-01-15T08:02:07;98448.40;;;-4.87;61.49
82311;BME280;72015;51.330;12.316;2024-01-15T08:06:31;98452.03;;;-4.90;62.04
82311;BME280;72015;51.330;12.316;2024-01-15T08:10:55;98451.70;;;-4.90;62.08
82311;BME280;72015;51.330;12.316;2024-01-15T08:15:19;98451.34;;;-4.85;61.27
82311;BME280;72015;51.330;12.316;2024-01-15T08:19:43;98450.84;;;-4.85;61.36
82311;BME280;72015;51.330;12.316;2024-01-15T08:24:07;98451.68;;;-4.83;61.41
82311;BME280;72015;51.330;12.316;2024-01-15T08:28:31;98455.39;;;-4.87;62.00
82311;BME280;72015;51.330;12.316;2024-01-15T08:32:55;98460.11;;;-4.86;61.93
82311;BME280;72015;51.330;12.316;2024-01-15T08:37:19;98463.32;;;-4.81;61.22
82311;BME280;72015;51.330;12.316;2024-01-15T08:41:43;98465.19;;;-4.81;62.00
82311;BME280;72015;51.330;12.316;2024-01-15T19:33:01;98674.28;;;-4.15;69.93
82311;BME280;72015;51.330;12.316;2024-01-15T19:37:25;98677.12;;;-4.15;68.75
82311;BME280;72015;51.330;12.316;2024-01-15T19:41:50;98680.49;;;-4.03;66.68
82311;BME280;72015;51.330;12.316;2024-01-15T19:46:13;98683.10;;;-3.70;63.96
82311;BME280;72015;51.330;12.316;2024-01-15T19:50:37;98687.33;;;-3.40;64.39
82311;BME280;72015;51.330;12.316;2024-01-15T19:55:01;98696.78;;;-3.39;67.85
82311;BME280;72015;51.330;12.316;2024-01-15T19:59:25;98701.86;;;-3.35;69.33
82311;BME280;72015;51.330;12.316;2024-01-15T20:03:49;98707.70;;;-3.27;68.15
82311;BME280;72015;51.330;12.316;2024-01-15T20:08:13;98715.23;;;-3.35;70.83
82311;BME280;72015;51.330;12.316;2024-01-15T20:12:38;98725.29;;;-3.29;68.85
82311;BME280;72015;51.330;12.316;2024-01-15T20:17:02;98732.30;;;-3.29;69.53
82311;BME280;72015;51.330;12.316;2024-01-15T20:21:26;98741.27;;;-3.29;69.58
82311;BME280;72015;51.330;12.316;2024-01-15T20:25:50;98750.72;;;-3.15;68.27
82311;BME280;72015;51.330;12.316;2024-01-15T20:30:14;98759.78;;;-3.14;68.66
82311;BME280;72015;51.330;12.316;2024-01-15T20:34:38;98768.84;;;-3.02;67.04
82311;BME280;72015;51.330;12.316;2024-01-15T20:39:02;98776.32;;;-2.79;65.67
82311;BME280;72015;51.330;12.316;2024-01-15T20:43:26;98782.29;;;-2.58;64.21
82311;BME280;72015;51.330;12.316;2024-01-15T20:47:50;98788.19;;;-2.41;63.08
82311;BME280;72015;51.330;12.316;2024-01-15T20:52:14;98794.26;;;-2.33;62.85
82311;BME280;72015;51.330;12.316;2024-01-15T20:56:38;98799.98;;;-2.28;62.41
82311;BME280;72015;51.330;12.316;2024-01-15T21:01:05;98804.67;;;-2.40;62.96
82311;BME280;72015;51.330;12.316;2024-01-15T21:05:26;98810.10;;;-2.61;63.46
82311;BME280;72015;51.330;12.316;2024-01-15T21:09:50;98819.89;;;-2.91;64.85
82311;BME280;72015;51.330;12.316;2024-01-15T21:14:14;98827.04;;;-3.13;64.73
82311;BME280;72015;51.330;12.316;2024-01-15T21:18:38;98832.12;;;-3.30;63.85
82311;BME280;72015;51.330;12.316;2024-01-15T21:23:02;98839.03;;;-3.41;63.47
82311;BME280;72015;51.330;12.316;2024-01-15T21:27:26;98844.12;;;-3.48;63.47
82311;BME280;72015;51.330;12.316;2024-01-15T21:31:50;98847.88;;;-3.47;62.42
82311;BME280;72015;51.330;12.316;2024-01-15T21:36:14;98853.59;;;-3.36;61.01
82311;BME280;72015;51.330;12.316;2024-01-15T21:40:38;98858.86;;;-3.30;60.27
82311;BME280;72015;51.330;12.316;2024-01-15T21:45:02;98864.83;;;-3.26;60.19
82311;BME280;72015;51.330;12.316;2024-01-15T21:49:26;98869.44;;;-3.12;59.36
82311;BME280;72015;51.330;12.316;2024-01-15T21:53:50;98872.97;;;-3.02;58.36
82311;BME280;72015;51.330;12.316;2024-01-15T21:58:14;98877.87;;;-2.88;57.81
82311;BME280;72015;51.330;12.316;2024-01-15T22:02:38;98881.74;;;-2.72;57.31
82311;BME280;72015;51.330;12.316;2024-01-15T22:07:02;98886.06;;;-2.84;58.80
82311;BME280;72015;51.330;12.316;2024-01-15T22:11:26;98891.04;;;-2.95;58.80
82311;BME280;72015;51.330;12.316;2024-01-15T22:15:50;98895.11;;;-3.12;59.61
82311;BME280;72015;51.330;12.316;2024-01-15T22:20:14;98897.96;;;-3.23;59.48
82311;BME280;72015;51.330;12.316;2024-01-15T22:24:38;98900.92;;;-3.29;59.13
82311;BME280;72015;51.330;12.316;2024-01-15T22:29:02;98906.58;;;-3.33;58.57
82311;BME280;72015;51.330;12.316;2024-01-15T22:33:26;98910.83;;;-3.33;58.35
82311;BME280;72015;51.330;12.316;2024-01-15T22:37:50;98915.51;;;-3.37;58.34
82311;BME280;72015;51.330;12.316;2024-01-15T22:42:14;98919.28;;;-3.35;57.10
82311;BME280;72015;51.330;12.316;2024-01-15T22:46:38;98923.33;;;-3.28;56.58
82311;BME280;72015;51.330;12.316;2024-01-15T22:51:02;98926.75;;;-3.20;56.32
82311;BME280;72015;51.330;12.316;2024-01-15T22:55:26;98932.76;;;-3.22;57.16
82311;BME280;72015;51.330;12.316;2024-01-15T22:59:50;98936.88;;;-3.26;57.46
82311;BME280;72015;51.330;12.316;2024-01-15T23:04:14;98939.54;;;-3.29;57.79
82311;BME280;72015;51.330;12.316;2024-01-15T23:08:38;98943.11;;;-3.31;57.90
82311;BME280;72015;51.330;12.316;2024-01-15T23:13:02;98950.04;;;-3.39;58.60
82311;BME280;72015;51.330;12.316;2024-01-15T23:17:26;98955.08;;;-3.55;60.54
82311;BME280;72015;51.330;12.316;2024-01-15T23:21:50;98956.66;;;-3.60;60.44
82311;BME280;72015;51.330;12.316;2024-01-15T23:26:16;98960.88;;;-3.66;61.62
82311;BME280;72015;51.330;12.316;2024-01-15T23:30:38;98965.08;;;-3.69;62.03
82311;BME280;72015;51.330;12.316;2024-01-15T23:35:03;98967.74;;;-3.78;63.44
82311;BME280;72015;51.330;12.316;2024-01-15T23:39:26;98972.74;;;-3.88;64.40
82311;BME280;72015;51.330;12.316;2024-01-15T23:43:50;98977.98;;;-3.92;64.06
82311;BME280;72015;51.330;12.316;2024-01-15T23:48:14;98981.42;;;-3.97;64.25
82311;BME280;72015;51.330;12.316;2024-01-15T23:52:38;98986.83;;;-4.00;63.83
82311;BME280;72015;51.330;12.316;2024-01-15T23:57:03;98990.31;;;-4.02;63.48
